sensor_id;sensor_type;location;lat;lon;timestamp;temperature;humidity
65478;SHT31;53678;39.642;22.430;2023-05-07T00:01:43;16.29;75.30
65478;SHT31;53678;39.642;22.430;2023-05-07T00:04:09;16.20;75.65
65478;SHT31;53678;39.642;22.430;2023-05-07T00:06:35;16.25;75.87
65478;SHT31;53678;39.642;22.430;2023-05-07T00:09:01;16.30;75.92
65478;SHT31;53678;39.642;22.430;2023-05-07T00:11:27;16.23;75.99
65478;SHT31;53678;39.642;22.430;2023-05-07T00:13:53;16.22;76.02
65478;SHT31;53678;39.642;22.430;2023-05-07T00:16:19;16.23;76.12
65478;SHT31;53678;39.642;22.430;2023-05-07T00:18:45;16.13;76.29
65478;SHT31;53678;39.642;22.430;2023-05-07T00:21:11;16.04;76.51
65478;SHT31;53678;39.642;22.430;2023-05-07T00:23:38;15.95;77.25
65478;SHT31;53678;39.642;22.430;2023-05-07T00:26:04;15.85;77.70
65478;SHT31;53678;39.642;22.430;2023-05-07T00:28:30;15.85;77.34
65478;SHT31;53678;39.642;22.430;2023-05-07T00:30:55;15.84;77.03
65478;SHT31;53678;39.642;22.430;2023-05-07T00:33:21;15.55;78.57
65478;SHT31;53678;39.642;22.430;2023-05-07T00:35:48;15.44;79.21
65478;SHT31;53678;39.642;22.430;2023-05-07T00:38:13;15.44;79.43
65478;SHT31;53678;39.642;22.430;2023-05-07T00:40:39;15.36;79.71
65478;SHT31;53678;39.642;22.430;2023-05-07T00:43:06;15.10;80.84
65478;SHT31;53678;39.642;22.430;2023-05-07T00:45:33;14.96;82.04
65478;SHT31;53678;39.642;22.430;2023-05-07T00:48:02;14.86;82.37
65478;SHT31;53678;39.642;22.430;2023-05-07T00:50:29;14.73;82.77
65478;SHT31;53678;39.642;22.430;2023-05-07T00:52:55;14.82;82.63
65478;SHT31;53678;39.642;22.430;2023-05-07T00:55:22;14.88;82.46
65478;SHT31;53678;39.642;22.430;2023-05-07T00:57:49;14.99;81.70
65478;SHT31;53678;39.642;22.430;2023-05-07T01:00:15;14.71;82.86
65478;SHT31;53678;39.642;22.430;2023-05-07T01:02:42;14.48;83.74
65478;SHT31;53678;39.642;22.430;2023-05-07T01:05:10;14.45;84.01
65478;SHT31;53678;39.642;22.430;2023-05-07T01:07:38;14.51;82.99
65478;SHT31;53678;39.642;22.430;2023-05-07T01:10:06;14.28;83.99
65478;SHT31;53678;39.642;22.430;2023-05-07T01:12:33;14.46;83.07
65478;SHT31;53678;39.642;22.430;2023-05-07T01:15:00;14.62;82.56
65478;SHT31;53678;39.642;22.430;2023-05-07T01:17:26;14.83;82.35
65478;SHT31;53678;39.642;22.430;2023-05-07T01:19:52;15.00;80.81
65478;SHT31;53678;39.642;22.430;2023-05-07T01:22:32;15.23;80.12
65478;SHT31;53678;39.642;22.430;2023-05-07T01:25:00;15.34;79.42
65478;SHT31;53678;39.642;22.430;2023-05-07T01:27:28;15.40;79.23
65478;SHT31;53678;39.642;22.430;2023-05-07T01:29:54;15.47;79.32
65478;SHT31;53678;39.642;22.430;2023-05-07T01:32:29;15.31;79.27
65478;SHT31;53678;39.642;22.430;2023-05-07T01:34:58;15.40;79.47
65478;SHT31;53678;39.642;22.430;2023-05-07T01:37:26;15.54;78.62
65478;SHT31;53678;39.642;22.430;2023-05-07T01:39:52;15.68;78.19
65478;SHT31;53678;39.642;22.430;2023-05-07T01:42:19;15.77;77.61
65478;SHT31;53678;39.642;22.430;2023-05-07T01:44:45;15.87;77.41
65478;SHT31;53678;39.642;22.430;2023-05-07T01:47:12;15.96;77.08
65478;SHT31;53678;39.642;22.430;2023-05-07T01:49:39;16.04;76.39
65478;SHT31;53678;39.642;22.430;2023-05-07T01:52:05;16.04;76.46
65478;SHT31;53678;39.642;22.430;2023-05-07T01:54:31;15.94;76.40
65478;SHT31;53678;39.642;22.430;2023-05-07T01:56:59;15.96;76.47
65478;SHT31;53678;39.642;22.430;2023-05-07T01:59:25;15.99;76.28
65478;SHT31;53678;39.642;22.430;2023-05-07T02:01:51;16.02;76.36
65478;SHT31;53678;39.642;22.430;2023-05-07T02:04:17;16.08;76.37
65478;SHT31;53678;39.642;22.430;2023-05-07T02:06:43;16.05;76.08
65478;SHT31;53678;39.642;22.430;2023-05-07T02:09:10;16.05;76.14
65478;SHT31;53678;39.642;22.430;2023-05-07T02:11:39;15.95;76.64
65478;SHT31;53678;39.642;22.430;2023-05-07T02:14:05;15.85;76.89
65478;SHT31;53678;39.642;22.430;2023-05-07T02:16:31;15.85;76.37
65478;SHT31;53678;39.642;22.430;2023-05-07T02:18:56;15.91;76.55
65478;SHT31;53678;39.642;22.430;2023-05-07T02:21:24;15.95;76.52
65478;SHT31;53678;39.642;22.430;2023-05-07T02:23:50;15.98;76.34
65478;SHT31;53678;39.642;22.430;2023-05-07T02:26:16;16.02;76.16
65478;SHT31;53678;39.642;22.430;2023-05-07T02:28:42;16.01;75.86
65478;SHT31;53678;39.642;22.430;2023-05-07T02:31:07;16.06;75.76
65478;SHT31;53678;39.642;22.430;2023-05-07T02:33:34;16.08;75.48
65478;SHT31;53678;39.642;22.430;2023-05-07T02:36:09;15.95;75.66
65478;SHT31;53678;39.642;22.430;2023-05-07T02:38:40;15.75;76.69
65478;SHT31;53678;39.642;22.430;2023-05-07T02:41:06;15.91;76.53
65478;SHT31;53678;39.642;22.430;2023-05-07T02:43:32;15.75;77.11
65478;SHT31;53678;39.642;22.430;2023-05-07T02:46:04;15.84;76.72
65478;SHT31;53678;39.642;22.430;2023-05-07T02:48:32;15.58;77.28
65478;SHT31;53678;39.642;22.430;2023-05-07T02:50:58;15.78;77.10
65478;SHT31;53678;39.642;22.430;2023-05-07T02:53:25;15.71;76.90
65478;SHT31;53678;39.642;22.430;2023-05-07T02:55:59;15.72;76.37
65478;SHT31;53678;39.642;22.430;2023-05-07T02:58:25;15.71;75.94
65478;SHT31;53678;39.642;22.430;2023-05-07T03:00:52;15.51;76.79
65478;SHT31;53678;39.642;22.430;2023-05-07T03:03:41;15.50;77.24
65478;SHT31;53678;39.642;22.430;2023-05-07T03:06:07;15.40;77.08
65478;SHT31;53678;39.642;22.430;2023-05-07T03:08:32;15.40;77.33
65478;SHT31;53678;39.642;22.430;2023-05-07T03:10:58;15.43;76.78
65478;SHT31;53678;39.642;22.430;2023-05-07T03:13:24;15.59;76.75
65478;SHT31;53678;39.642;22.430;2023-05-07T03:15:52;15.55;76.77
65478;SHT31;53678;39.642;22.430;2023-05-07T03:18:17;15.55;76.56
65478;SHT31;53678;39.642;22.430;2023-05-07T03:20:43;15.67;76.31
65478;SHT31;53678;39.642;22.430;2023-05-07T03:23:09;15.31;77.92
65478;SHT31;53678;39.642;22.430;2023-05-07T03:25:35;15.30;78.38
65478;SHT31;53678;39.642;22.430;2023-05-07T03:28:01;15.24;77.69
65478;SHT31;53678;39.642;22.430;2023-05-07T03:30:36;15.23;78.12
65478;SHT31;53678;39.642;22.430;2023-05-07T03:33:01;15.31;77.47
65478;SHT31;53678;39.642;22.430;2023-05-07T03:35:27;15.27;77.98
65478;SHT31;53678;39.642;22.430;2023-05-07T03:37:53;15.24;78.27
65478;SHT31;53678;39.642;22.430;2023-05-07T03:40:20;15.46;76.67
65478;SHT31;53678;39.642;22.430;2023-05-07T03:42:50;15.29;77.41
65478;SHT31;53678;39.642;22.430;2023-05-07T03:45:19;15.44;77.31
65478;SHT31;53678;39.642;22.430;2023-05-07T03:47:52;15.64;76.78
65478;SHT31;53678;39.642;22.430;2023-05-07T03:50:20;16.09;75.44
65478;SHT31;53678;39.642;22.430;2023-05-07T03:52:45;16.19;75.17
65478;SHT31;53678;39.642;22.430;2023-05-07T03:55:13;16.64;73.93
65478;SHT31;53678;39.642;22.430;2023-05-07T03:57:43;17.42;71.74
65478;SHT31;53678;39.642;22.430;2023-05-07T04:00:10;17.74;70.28
65478;SHT31;53678;39.642;22.430;2023-05-07T04:02:45;17.77;70.49
65478;SHT31;53678;39.642;22.430;2023-05-07T04:05:14;17.79;70.71
65478;SHT31;53678;39.642;22.430;2023-05-07T04:07:41;18.20;69.58
65478;SHT31;53678;39.642;22.430;2023-05-07T04:10:09;18.41;69.43
65478;SHT31;53678;39.642;22.430;2023-05-07T04:12:37;19.11;68.00
65478;SHT31;53678;39.642;22.430;2023-05-07T04:15:05;19.75;65.74
65478;SHT31;53678;39.642;22.430;2023-05-07T04:17:31;20.30;64.25
65478;SHT31;53678;39.642;22.430;2023-05-07T04:19:57;20.77;62.60
65478;SHT31;53678;39.642;22.430;2023-05-07T04:22:24;21.12;61.72
65478;SHT31;53678;39.642;22.430;2023-05-07T04:24:50;21.08;61.73
65478;SHT31;53678;39.642;22.430;2023-05-07T04:27:17;21.46;60.42
65478;SHT31;53678;39.642;22.430;2023-05-07T04:29:43;21.63;59.99
65478;SHT31;53678;39.642;22.430;2023-05-07T04:32:14;21.59;60.41
65478;SHT31;53678;39.642;22.430;2023-05-07T04:34:40;21.52;60.32
65478;SHT31;53678;39.642;22.430;2023-05-07T04:37:07;22.02;59.43
65478;SHT31;53678;39.642;22.430;2023-05-07T04:39:33;22.80;57.78
65478;SHT31;53678;39.642;22.430;2023-05-07T04:42:01;23.24;56.66
65478;SHT31;53678;39.642;22.430;2023-05-07T04:44:28;23.45;55.98
65478;SHT31;53678;39.642;22.430;2023-05-07T04:46:56;23.81;54.55
65478;SHT31;53678;39.642;22.430;2023-05-07T04:49:23;24.17;54.24
65478;SHT31;53678;39.642;22.430;2023-05-07T04:51:51;24.33;53.69
65478;SHT31;53678;39.642;22.430;2023-05-07T04:54:21;24.63;52.66
65478;SHT31;53678;39.642;22.430;2023-05-07T04:56:46;24.70;52.26
65478;SHT31;53678;39.642;22.430;2023-05-07T04:59:12;24.75;52.17
65478;SHT31;53678;39.642;22.430;2023-05-07T05:01:38;24.68;51.97
65478;SHT31;53678;39.642;22.430;2023-05-07T05:04:04;25.25;50.77
65478;SHT31;53678;39.642;22.430;2023-05-07T05:06:30;25.22;50.79
65478;SHT31;53678;39.642;22.430;2023-05-07T05:08:56;24.72;51.32
65478;SHT31;53678;39.642;22.430;2023-05-07T05:11:24;24.51;52.22
65478;SHT31;53678;39.642;22.430;2023-05-07T05:13:50;24.94;51.69
65478;SHT31;53678;39.642;22.430;2023-05-07T05:16:19;24.95;51.03
65478;SHT31;53678;39.642;22.430;2023-05-07T05:18:44;24.23;53.09
65478;SHT31;53678;39.642;22.430;2023-05-07T05:21:13;24.46;52.56
65478;SHT31;53678;39.642;22.430;2023-05-07T05:23:40;25.19;50.79
65478;SHT31;53678;39.642;22.430;2023-05-07T05:26:06;25.11;51.43
65478;SHT31;53678;39.642;22.430;2023-05-07T05:28:33;25.35;50.82
65478;SHT31;53678;39.642;22.430;2023-05-07T05:30:59;25.36;50.47
65478;SHT31;53678;39.642;22.430;2023-05-07T05:33:27;25.56;50.10
65478;SHT31;53678;39.642;22.430;2023-05-07T05:35:54;25.46;50.67
65478;SHT31;53678;39.642;22.430;2023-05-07T05:38:20;25.40;50.70
65478;SHT31;53678;39.642;22.430;2023-05-07T05:40:47;25.19;51.34
65478;SHT31;53678;39.642;22.430;2023-05-07T05:43:13;24.49;51.94
65478;SHT31;53678;39.642;22.430;2023-05-07T05:45:39;23.64;54.06
65478;SHT31;53678;39.642;22.430;2023-05-07T05:48:06;22.22;57.27
65478;SHT31;53678;39.642;22.430;2023-05-07T05:50:32;21.60;59.11
65478;SHT31;53678;39.642;22.430;2023-05-07T05:52:58;20.98;61.13
65478;SHT31;53678;39.642;22.430;2023-05-07T05:55:26;21.33;61.61
65478;SHT31;53678;39.642;22.430;2023-05-07T05:57:52;21.33;60.99
65478;SHT31;53678;39.642;22.430;2023-05-07T06:00:19;21.12;61.53
65478;SHT31;53678;39.642;22.430;2023-05-07T06:02:55;21.52;60.35
65478;SHT31;53678;39.642;22.430;2023-05-07T06:05:23;21.56;60.08
65478;SHT31;53678;39.642;22.430;2023-05-07T06:07:51;21.29;61.53
65478;SHT31;53678;39.642;22.430;2023-05-07T06:10:18;21.59;60.91
65478;SHT31;53678;39.642;22.430;2023-05-07T06:12:44;20.88;62.28
65478;SHT31;53678;39.642;22.430;2023-05-07T06:15:10;21.54;60.10
65478;SHT31;53678;39.642;22.430;2023-05-07T06:17:37;21.83;59.87
65478;SHT31;53678;39.642;22.430;2023-05-07T06:20:03;21.63;61.62
65478;SHT31;53678;39.642;22.430;2023-05-07T06:22:29;21.54;62.42
65478;SHT31;53678;39.642;22.430;2023-05-07T06:24:54;22.41;59.83
65478;SHT31;53678;39.642;22.430;2023-05-07T06:27:21;22.11;60.21
65478;SHT31;53678;39.642;22.430;2023-05-07T06:29:48;22.14;61.81
65478;SHT31;53678;39.642;22.430;2023-05-07T06:32:16;22.11;61.36
65478;SHT31;53678;39.642;22.430;2023-05-07T06:34:44;22.69;59.50
65478;SHT31;53678;39.642;22.430;2023-05-07T06:37:11;22.28;59.96
65478;SHT31;53678;39.642;22.430;2023-05-07T06:40:00;22.15;60.95
65478;SHT31;53678;39.642;22.430;2023-05-07T06:42:26;21.18;61.92
65478;SHT31;53678;39.642;22.430;2023-05-07T06:44:57;21.36;61.96
65478;SHT31;53678;39.642;22.430;2023-05-07T06:47:23;21.52;62.16
65478;SHT31;53678;39.642;22.430;2023-05-07T06:49:52;22.39;59.76
65478;SHT31;53678;39.642;22.430;2023-05-07T06:52:20;22.52;59.06
65478;SHT31;53678;39.642;22.430;2023-05-07T06:54:48;22.82;58.66
65478;SHT31;53678;39.642;22.430;2023-05-07T06:57:16;22.66;60.36
65478;SHT31;53678;39.642;22.430;2023-05-07T06:59:42;22.52;60.58
65478;SHT31;53678;39.642;22.430;2023-05-07T07:02:08;22.39;60.58
65478;SHT31;53678;39.642;22.430;2023-05-07T07:04:34;22.31;61.54
65478;SHT31;53678;39.642;22.430;2023-05-07T07:07:05;22.90;59.55
65478;SHT31;53678;39.642;22.430;2023-05-07T07:09:31;23.28;59.12
65478;SHT31;53678;39.642;22.430;2023-05-07T07:11:58;23.18;58.44
65478;SHT31;53678;39.642;22.430;2023-05-07T07:14:24;23.24;58.28
65478;SHT31;53678;39.642;22.430;2023-05-07T07:16:52;23.34;57.80
65478;SHT31;53678;39.642;22.430;2023-05-07T07:19:19;23.45;58.11
65478;SHT31;53678;39.642;22.430;2023-05-07T07:21:48;23.53;58.12
65478;SHT31;53678;39.642;22.430;2023-05-07T07:24:14;23.41;57.93
65478;SHT31;53678;39.642;22.430;2023-05-07T07:26:45;23.28;58.19
65478;SHT31;53678;39.642;22.430;2023-05-07T07:29:12;23.57;57.46
65478;SHT31;53678;39.642;22.430;2023-05-07T07:31:38;23.43;57.61
65478;SHT31;53678;39.642;22.430;2023-05-07T07:34:04;23.44;58.58
65478;SHT31;53678;39.642;22.430;2023-05-07T07:36:29;23.10;58.94
65478;SHT31;53678;39.642;22.430;2023-05-07T07:38:55;23.10;58.54
65478;SHT31;53678;39.642;22.430;2023-05-07T07:41:21;23.76;57.36
65478;SHT31;53678;39.642;22.430;2023-05-07T07:43:47;24.47;55.47
65478;SHT31;53678;39.642;22.430;2023-05-07T07:46:13;23.74;56.37
65478;SHT31;53678;39.642;22.430;2023-05-07T07:48:39;23.78;56.62
65478;SHT31;53678;39.642;22.430;2023-05-07T07:51:05;23.55;56.94
65478;SHT31;53678;39.642;22.430;2023-05-07T07:53:31;23.10;58.04
65478;SHT31;53678;39.642;22.430;2023-05-07T07:55:57;23.68;56.97
65478;SHT31;53678;39.642;22.430;2023-05-07T07:58:26;24.10;57.20
65478;SHT31;53678;39.642;22.430;2023-05-07T08:00:52;24.01;56.57
65478;SHT31;53678;39.642;22.430;2023-05-07T08:03:21;23.84;56.95
65478;SHT31;53678;39.642;22.430;2023-05-07T08:05:51;23.75;56.65
65478;SHT31;53678;39.642;22.430;2023-05-07T08:08:17;23.66;56.64
65478;SHT31;53678;39.642;22.430;2023-05-07T08:10:43;23.76;56.28
65478;SHT31;53678;39.642;22.430;2023-05-07T08:13:17;23.54;57.13
65478;SHT31;53678;39.642;22.430;2023-05-07T08:15:43;23.78;56.29
65478;SHT31;53678;39.642;22.430;2023-05-07T08:18:10;24.26;54.82
65478;SHT31;53678;39.642;22.430;2023-05-07T08:20:36;24.40;54.14
65478;SHT31;53678;39.642;22.430;2023-05-07T08:23:06;24.01;55.34
65478;SHT31;53678;39.642;22.430;2023-05-07T08:25:34;24.56;54.47
65478;SHT31;53678;39.642;22.430;2023-05-07T08:28:00;24.90;53.00
65478;SHT31;53678;39.642;22.430;2023-05-07T08:30:26;24.72;54.05
65478;SHT31;53678;39.642;22.430;2023-05-07T08:32:52;24.82;53.59
65478;SHT31;53678;39.642;22.430;2023-05-07T08:35:18;25.19;52.48
65478;SHT31;53678;39.642;22.430;2023-05-07T08:37:44;25.47;51.29
65478;SHT31;53678;39.642;22.430;2023-05-07T08:40:11;25.12;53.21
65478;SHT31;53678;39.642;22.430;2023-05-07T08:42:37;24.59;54.36
65478;SHT31;53678;39.642;22.430;2023-05-07T08:45:09;24.57;53.42
65478;SHT31;53678;39.642;22.430;2023-05-07T08:47:51;24.43;53.87
65478;SHT31;53678;39.642;22.430;2023-05-07T08:50:20;25.02;52.49
65478;SHT31;53678;39.642;22.430;2023-05-07T08:52:47;24.92;52.52
65478;SHT31;53678;39.642;22.430;2023-05-07T08:55:16;24.33;54.36
65478;SHT31;53678;39.642;22.430;2023-05-07T08:57:43;24.50;52.64
65478;SHT31;53678;39.642;22.430;2023-05-07T09:00:11;24.59;51.36
65478;SHT31;53678;39.642;22.430;2023-05-07T09:02:37;25.11;51.38
65478;SHT31;53678;39.642;22.430;2023-05-07T09:05:05;25.81;50.46
65478;SHT31;53678;39.642;22.430;2023-05-07T09:07:31;23.92;52.91
65478;SHT31;53678;39.642;22.430;2023-05-07T09:09:58;24.27;52.51
65478;SHT31;53678;39.642;22.430;2023-05-07T09:12:26;24.12;51.87
65478;SHT31;53678;39.642;22.430;2023-05-07T09:14:52;23.85;51.85
65478;SHT31;53678;39.642;22.430;2023-05-07T09:17:17;24.36;51.05
65478;SHT31;53678;39.642;22.430;2023-05-07T09:19:44;24.61;51.89
65478;SHT31;53678;39.642;22.430;2023-05-07T09:22:14;24.61;50.61
65478;SHT31;53678;39.642;22.430;2023-05-07T09:24:53;24.75;48.81
65478;SHT31;53678;39.642;22.430;2023-05-07T09:27:22;24.68;49.94
65478;SHT31;53678;39.642;22.430;2023-05-07T09:29:49;24.54;50.94
65478;SHT31;53678;39.642;22.430;2023-05-07T09:32:16;24.60;50.56
65478;SHT31;53678;39.642;22.430;2023-05-07T09:34:42;24.95;49.47
65478;SHT31;53678;39.642;22.430;2023-05-07T09:37:08;25.21;49.29
65478;SHT31;53678;39.642;22.430;2023-05-07T09:39:47;24.65;49.76
65478;SHT31;53678;39.642;22.430;2023-05-07T09:42:15;24.50;49.85
65478;SHT31;53678;39.642;22.430;2023-05-07T09:44:43;24.68;49.61
65478;SHT31;53678;39.642;22.430;2023-05-07T09:47:18;25.04;48.93
65478;SHT31;53678;39.642;22.430;2023-05-07T09:49:47;25.28;48.40
65478;SHT31;53678;39.642;22.430;2023-05-07T09:52:19;25.09;47.89
65478;SHT31;53678;39.642;22.430;2023-05-07T09:54:50;24.96;48.32
65478;SHT31;53678;39.642;22.430;2023-05-07T09:57:19;24.56;49.42
65478;SHT31;53678;39.642;22.430;2023-05-07T09:59:51;25.11;48.60
65478;SHT31;53678;39.642;22.430;2023-05-07T10:02:19;25.16;47.70
65478;SHT31;53678;39.642;22.430;2023-05-07T10:04:50;25.30;47.59
65478;SHT31;53678;39.642;22.430;2023-05-07T10:07:21;25.56;47.57
65478;SHT31;53678;39.642;22.430;2023-05-07T10:09:50;25.38;47.66
65478;SHT31;53678;39.642;22.430;2023-05-07T10:12:36;24.94;48.21
65478;SHT31;53678;39.642;22.430;2023-05-07T10:15:12;24.47;48.82
65478;SHT31;53678;39.642;22.430;2023-05-07T10:17:42;24.53;49.14
65478;SHT31;53678;39.642;22.430;2023-05-07T10:20:10;24.40;49.01
65478;SHT31;53678;39.642;22.430;2023-05-07T10:22:45;24.85;48.46
65478;SHT31;53678;39.642;22.430;2023-05-07T10:25:22;24.84;48.09
65478;SHT31;53678;39.642;22.430;2023-05-07T10:27:50;24.81;48.40
65478;SHT31;53678;39.642;22.430;2023-05-07T10:33:05;25.21;48.04
65478;SHT31;53678;39.642;22.430;2023-05-07T10:35:39;24.43;48.66
65478;SHT31;53678;39.642;22.430;2023-05-07T10:38:07;24.08;48.97
65478;SHT31;53678;39.642;22.430;2023-05-07T10:40:36;24.90;48.09
65478;SHT31;53678;39.642;22.430;2023-05-07T10:43:04;25.32;47.11
65478;SHT31;53678;39.642;22.430;2023-05-07T10:45:36;25.65;46.73
65478;SHT31;53678;39.642;22.430;2023-05-07T10:48:16;25.84;46.19
65478;SHT31;53678;39.642;22.430;2023-05-07T10:51:20;25.74;46.12
65478;SHT31;53678;39.642;22.430;2023-05-07T10:53:48;25.69;46.01
65478;SHT31;53678;39.642;22.430;2023-05-07T11:02:05;25.42;46.25
65478;SHT31;53678;39.642;22.430;2023-05-07T11:04:41;25.49;46.94
65478;SHT31;53678;39.642;22.430;2023-05-07T11:07:29;24.63;48.02
65478;SHT31;53678;39.642;22.430;2023-05-07T11:10:09;25.15;47.81
65478;SHT31;53678;39.642;22.430;2023-05-07T11:12:54;25.23;47.71
65478;SHT31;53678;39.642;22.430;2023-05-07T11:15:47;25.11;47.82
65478;SHT31;53678;39.642;22.430;2023-05-07T11:18:46;25.35;47.38
65478;SHT31;53678;39.642;22.430;2023-05-07T11:21:12;25.29;47.18
65478;SHT31;53678;39.642;22.430;2023-05-07T11:26:41;24.82;48.30
65478;SHT31;53678;39.642;22.430;2023-05-07T11:29:13;24.75;48.71
65478;SHT31;53678;39.642;22.430;2023-05-07T11:31:41;24.61;48.12
65478;SHT31;53678;39.642;22.430;2023-05-07T11:34:08;24.71;48.29
65478;SHT31;53678;39.642;22.430;2023-05-07T11:36:34;24.75;48.01
65478;SHT31;53678;39.642;22.430;2023-05-07T11:39:02;24.91;47.14
65478;SHT31;53678;39.642;22.430;2023-05-07T11:41:36;25.21;47.05
65478;SHT31;53678;39.642;22.430;2023-05-07T11:44:02;25.19;46.72
65478;SHT31;53678;39.642;22.430;2023-05-07T11:46:28;25.47;46.03
65478;SHT31;53678;39.642;22.430;2023-05-07T11:48:55;25.69;45.68
65478;SHT31;53678;39.642;22.430;2023-05-07T11:51:23;25.36;46.42
65478;SHT31;53678;39.642;22.430;2023-05-07T11:53:50;25.09;46.99
65478;SHT31;53678;39.642;22.430;2023-05-07T11:56:17;25.49;46.40
65478;SHT31;53678;39.642;22.430;2023-05-07T11:58:44;26.07;45.64
65478;SHT31;53678;39.642;22.430;2023-05-07T12:01:12;26.49;46.17
65478;SHT31;53678;39.642;22.430;2023-05-07T12:03:40;26.48;45.67
65478;SHT31;53678;39.642;22.430;2023-05-07T12:06:10;26.48;45.83
65478;SHT31;53678;39.642;22.430;2023-05-07T12:08:41;25.91;46.71
65478;SHT31;53678;39.642;22.430;2023-05-07T12:11:08;25.70;46.88
65478;SHT31;53678;39.642;22.430;2023-05-07T12:13:35;25.71;47.02
65478;SHT31;53678;39.642;22.430;2023-05-07T12:16:02;25.79;47.21
65478;SHT31;53678;39.642;22.430;2023-05-07T12:18:31;25.88;46.62
65478;SHT31;53678;39.642;22.430;2023-05-07T12:20:57;26.21;46.16
65478;SHT31;53678;39.642;22.430;2023-05-07T12:23:24;26.11;46.01
65478;SHT31;53678;39.642;22.430;2023-05-07T12:25:50;25.98;45.90
65478;SHT31;53678;39.642;22.430;2023-05-07T12:28:16;25.51;46.70
65478;SHT31;53678;39.642;22.430;2023-05-07T12:30:44;25.02;47.18
65478;SHT31;53678;39.642;22.430;2023-05-07T12:33:10;25.05;47.27
65478;SHT31;53678;39.642;22.430;2023-05-07T12:35:40;24.99;47.37
65478;SHT31;53678;39.642;22.430;2023-05-07T12:38:12;25.30;46.88
65478;SHT31;53678;39.642;22.430;2023-05-07T12:40:40;25.84;46.78
65478;SHT31;53678;39.642;22.430;2023-05-07T12:43:07;26.07;45.18
65478;SHT31;53678;39.642;22.430;2023-05-07T12:45:41;26.11;44.66
65478;SHT31;53678;39.642;22.430;2023-05-07T12:48:10;26.09;45.08
65478;SHT31;53678;39.642;22.430;2023-05-07T12:50:36;25.91;44.46
65478;SHT31;53678;39.642;22.430;2023-05-07T12:53:05;25.30;45.98
65478;SHT31;53678;39.642;22.430;2023-05-07T12:55:42;26.01;45.24
65478;SHT31;53678;39.642;22.430;2023-05-07T12:58:08;25.86;45.99
65478;SHT31;53678;39.642;22.430;2023-05-07T13:00:38;25.79;45.61
65478;SHT31;53678;39.642;22.430;2023-05-07T13:03:04;25.96;45.51
65478;SHT31;53678;39.642;22.430;2023-05-07T13:05:31;25.81;45.49
65478;SHT31;53678;39.642;22.430;2023-05-07T13:07:57;25.63;45.55
65478;SHT31;53678;39.642;22.430;2023-05-07T13:10:24;26.04;45.66
65478;SHT31;53678;39.642;22.430;2023-05-07T13:12:50;25.98;45.64
65478;SHT31;53678;39.642;22.430;2023-05-07T13:15:17;26.24;46.05
65478;SHT31;53678;39.642;22.430;2023-05-07T13:17:43;25.91;45.33
65478;SHT31;53678;39.642;22.430;2023-05-07T13:20:09;25.77;45.89
65478;SHT31;53678;39.642;22.430;2023-05-07T13:22:36;25.66;46.07
65478;SHT31;53678;39.642;22.430;2023-05-07T13:25:04;25.42;46.14
65478;SHT31;53678;39.642;22.430;2023-05-07T13:27:29;24.81;47.25
65478;SHT31;53678;39.642;22.430;2023-05-07T13:29:56;24.90;47.52
65478;SHT31;53678;39.642;22.430;2023-05-07T13:32:22;25.36;46.96
65478;SHT31;53678;39.642;22.430;2023-05-07T13:34:48;25.80;46.45
65478;SHT31;53678;39.642;22.430;2023-05-07T13:37:14;26.00;46.16
65478;SHT31;53678;39.642;22.430;2023-05-07T13:39:39;25.84;46.34
65478;SHT31;53678;39.642;22.430;2023-05-07T13:42:07;25.90;46.43
65478;SHT31;53678;39.642;22.430;2023-05-07T13:44:33;25.77;45.93
65478;SHT31;53678;39.642;22.430;2023-05-07T13:46:59;25.69;46.11
65478;SHT31;53678;39.642;22.430;2023-05-07T13:49:25;25.50;46.12
65478;SHT31;53678;39.642;22.430;2023-05-07T13:51:51;25.67;45.95
65478;SHT31;53678;39.642;22.430;2023-05-07T13:54:17;26.01;45.88
65478;SHT31;53678;39.642;22.430;2023-05-07T13:56:42;26.08;45.45
65478;SHT31;53678;39.642;22.430;2023-05-07T13:59:08;26.21;45.07
65478;SHT31;53678;39.642;22.430;2023-05-07T14:01:34;26.09;45.55
65478;SHT31;53678;39.642;22.430;2023-05-07T14:04:00;26.01;46.06
65478;SHT31;53678;39.642;22.430;2023-05-07T14:06:26;25.84;46.22
65478;SHT31;53678;39.642;22.430;2023-05-07T14:08:51;25.59;46.94
65478;SHT31;53678;39.642;22.430;2023-05-07T14:11:17;25.87;46.57
65478;SHT31;53678;39.642;22.430;2023-05-07T14:13:43;25.91;47.04
65478;SHT31;53678;39.642;22.430;2023-05-07T14:16:09;25.74;47.01
65478;SHT31;53678;39.642;22.430;2023-05-07T14:18:34;25.80;46.92
65478;SHT31;53678;39.642;22.430;2023-05-07T14:21:02;25.80;46.34
65478;SHT31;53678;39.642;22.430;2023-05-07T14:23:28;25.63;46.41
65478;SHT31;53678;39.642;22.430;2023-05-07T14:25:54;25.56;46.83
65478;SHT31;53678;39.642;22.430;2023-05-07T14:28:21;25.54;46.94
65478;SHT31;53678;39.642;22.430;2023-05-07T14:30:48;25.33;47.76
65478;SHT31;53678;39.642;22.430;2023-05-07T14:33:13;25.43;47.55
65478;SHT31;53678;39.642;22.430;2023-05-07T14:35:39;25.35;47.78
65478;SHT31;53678;39.642;22.430;2023-05-07T14:38:05;25.39;47.89
65478;SHT31;53678;39.642;22.430;2023-05-07T14:40:30;25.43;47.48
65478;SHT31;53678;39.642;22.430;2023-05-07T14:42:56;25.49;47.20
65478;SHT31;53678;39.642;22.430;2023-05-07T14:45:23;25.42;47.70
65478;SHT31;53678;39.642;22.430;2023-05-07T14:47:50;25.38;48.46
65478;SHT31;53678;39.642;22.430;2023-05-07T14:50:15;25.23;48.07
65478;SHT31;53678;39.642;22.430;2023-05-07T14:52:41;25.23;47.79
65478;SHT31;53678;39.642;22.430;2023-05-07T14:55:07;25.23;47.65
65478;SHT31;53678;39.642;22.430;2023-05-07T14:57:33;25.29;47.82
65478;SHT31;53678;39.642;22.430;2023-05-07T15:00:01;25.33;47.95
65478;SHT31;53678;39.642;22.430;2023-05-07T15:02:29;25.29;47.60
65478;SHT31;53678;39.642;22.430;2023-05-07T15:04:55;25.22;47.61
65478;SHT31;53678;39.642;22.430;2023-05-07T15:07:21;25.33;47.43
65478;SHT31;53678;39.642;22.430;2023-05-07T15:09:47;25.36;47.25
65478;SHT31;53678;39.642;22.430;2023-05-07T15:12:13;25.16;47.35
65478;SHT31;53678;39.642;22.430;2023-05-07T15:14:41;25.28;47.66
65478;SHT31;53678;39.642;22.430;2023-05-07T15:17:07;25.23;49.37
65478;SHT31;53678;39.642;22.430;2023-05-07T15:19:33;25.15;51.02
65478;SHT31;53678;39.642;22.430;2023-05-07T15:21:59;25.09;51.59
65478;SHT31;53678;39.642;22.430;2023-05-07T15:24:29;24.94;52.33
65478;SHT31;53678;39.642;22.430;2023-05-07T15:26:56;24.70;51.91
65478;SHT31;53678;39.642;22.430;2023-05-07T15:29:24;24.63;51.66
65478;SHT31;53678;39.642;22.430;2023-05-07T15:31:50;24.65;52.09